Time;durP1;ratioP1;P1;durP2;ratioP2;P2;SDS_P1;SDS_P2;PMS_P1;PMS_P2;Temp;Humidity;BMP_temperature;BMP_pressure;BME280_temperature;BME280_humidity;BME280_pressure;Samples;Min_cycle;Max_cycle;Signal;HPM_P1;HPM_P2
2022/10/07 00:00:54;;;;;;;2.40;1.43;;;;;;;8.23;66.29;100138.47;5094959;28;39160;-79
2022/10/07 00:03:24;;;;;;;2.80;1.73;;;;;;;8.26;66.56;100155.97;5094788;28;41904;-79
2022/10/07 00:06:04;;;;;;;2.97;1.40;;;;;;;8.21;66.70;100149.97;5111903;28;41824;-79
2022/10/07 00:08:32;;;;;;;1.80;1.70;;;;;;;7.98;66.55;100120.81;5112090;28;43008;-78
2022/10/07 00:11:06;;;;;;;3.10;2.10;;;;;;;8.17;66.66;100153.63;5094804;28;40519;-80
2022/10/07 00:13:35;;;;;;;2.60;1.73;;;;;;;8.11;66.71;100146.78;5111491;28;40636;-80
2022/10/07 00:16:05;;;;;;;2.83;1.63;;;;;;;7.77;66.86;100106.56;5111820;28;42793;-79
2022/10/07 00:18:34;;;;;;;3.70;1.77;;;;;;;8.07;66.58;100158.31;5111698;28;42577;-81
2022/10/07 00:21:04;;;;;;;1.70;1.00;;;;;;;7.91;66.49;100133.34;5095066;28;39349;-79
2022/10/07 00:23:32;;;;;;;2.53;1.80;;;;;;;8.02;66.98;100156.75;5111594;28;41731;-80
2022/10/07 00:26:01;;;;;;;3.50;1.60;;;;;;;7.98;66.93;100158.63;5112027;28;41405;-78
2022/10/07 00:28:31;;;;;;;4.47;1.90;;;;;;;7.95;68.81;100145.53;5094591;28;41009;-79
2022/10/07 00:30:59;;;;;;;1.67;1.50;;;;;;;7.93;68.26;100147.34;5111800;28;40875;-79
2022/10/07 00:33:30;;;;;;;2.17;1.70;;;;;;;7.74;68.33;100114.53;5111532;28;41889;-79
2022/10/07 00:35:58;;;;;;;1.50;1.33;;;;;;;7.90;68.06;100145.69;5108762;28;43599;-78
2022/10/07 00:38:26;;;;;;;2.60;1.27;;;;;;;7.90;67.95;100145.69;5111172;28;43810;-78
2022/10/07 00:40:53;;;;;;;2.00;1.40;;;;;;;7.89;68.08;100143.09;5094457;28;38543;-80
2022/10/07 00:43:25;;;;;;;1.60;1.43;;;;;;;7.77;68.15;100127.66;5111477;28;42017;-78
2022/10/07 00:45:57;;;;;;;2.17;1.50;;;;;;;7.87;67.95;100147.53;5108621;28;42855;-79
2022/10/07 00:48:29;;;;;;;2.93;1.50;;;;;;;7.75;68.16;100124.19;5110502;28;43264;-79
2022/10/07 00:51:00;;;;;;;3.63;1.53;;;;;;;7.79;67.81;100136.38;5108756;28;40059;-78
2022/10/07 00:53:31;;;;;;;1.63;1.40;;;;;;;7.74;67.80;100123.31;5094285;28;43500;-79
2022/10/07 00:56:02;;;;;;;1.67;1.30;;;;;;;7.71;68.25;100117.28;5096472;28;43277;-80
2022/10/07 00:58:33;;;;;;;1.97;1.57;;;;;;;7.83;68.29;100133.56;5097886;28;40802;-79
2022/10/07 01:01:02;;;;;;;1.93;1.70;;;;;;;7.82;68.33;100130.97;5098051;28;40149;-80
2022/10/07 01:03:30;;;;;;;2.27;1.63;;;;;;;7.82;68.12;100130.97;5114712;28;41909;-79
2022/10/07 01:05:58;;;;;;;3.53;1.73;;;;;;;7.82;68.12;100128.34;5097636;28;42254;-79
2022/10/07 01:08:26;;;;;;;1.60;1.33;;;;;;;7.81;68.25;100130.13;5115054;28;42423;-79
2022/10/07 01:11:12;;;;;;;2.47;1.50;;;;;;;7.69;68.37;100098.84;5115026;28;39849;-79
2022/10/07 01:13:46;;;;;;;4.73;1.37;;;;;;;7.79;68.16;100107.38;5113714;28;42025;-79
2022/10/07 01:16:24;;;;;;;3.47;1.77;;;;;;;7.77;67.95;100107.41;5097407;28;43503;-79
2022/10/07 01:18:55;;;;;;;2.27;1.73;;;;;;;7.69;67.97;100093.56;5097770;28;41303;-79
2022/10/07 01:21:34;;;;;;;1.90;1.27;;;;;;;7.61;68.06;100078.91;5111658;28;39949;-79
2022/10/07 01:24:16;;;;;;;1.10;1.00;;;;;;;7.71;68.42;100104.09;5097188;28;40704;-79
2022/10/07 01:26:56;;;;;;;2.50;1.40;;;;;;;7.69;68.17;100098.84;5097485;28;44434;-78
2022/10/07 01:29:30;;;;;;;2.00;1.33;;;;;;;7.63;68.53;100083.25;5097745;28;41156;-79
2022/10/07 01:32:06;;;;;;;2.10;1.50;;;;;;;7.63;68.57;100096.41;5097420;28;39147;-79
2022/10/07 01:34:37;;;;;;;2.17;1.70;;;;;;;7.52;68.30;100075.66;5097562;28;40953;-80
2022/10/07 01:37:08;;;;;;;2.63;1.50;;;;;;;7.59;68.31;100097.41;5097192;28;41654;-79
2022/10/07 01:39:40;;;;;;;5.23;1.57;;;;;;;7.57;68.46;100089.56;5097329;28;43136;-78
2022/10/07 01:42:11;;;;;;;2.13;1.30;;;;;;;7.42;68.36;100062.78;5097112;28;40507;-79
2022/10/07 01:44:41;;;;;;;2.03;1.50;;;;;;;7.55;68.20;100086.09;5097276;28;40664;-79
2022/10/07 01:47:09;;;;;;;2.00;1.73;;;;;;;7.55;68.68;100085.22;5113857;28;43737;-79
2022/10/07 01:49:37;;;;;;;4.43;1.30;;;;;;;7.54;68.49;100078.25;5114598;28;42441;-79
2022/10/07 01:52:18;;;;;;;2.00;1.50;;;;;;;7.41;68.44;100055.81;5114177;28;39997;-79
2022/10/07 01:55:07;;;;;;;2.30;1.30;;;;;;;7.51;68.89;100079.22;5131485;27;40733;-79
2022/10/07 01:57:46;;;;;;;1.60;1.10;;;;;;;7.38;68.74;100048.88;5111775;28;42690;-78
2022/10/07 02:00:16;;;;;;;1.77;1.27;;;;;;;7.44;68.67;100064.47;5097513;28;42306;-79
2022/10/07 02:03:16;;;;;;;2.50;1.50;;;;;;;7.46;68.72;100065.28;5112310;28;40045;-79
2022/10/07 02:05:53;;;;;;;1.27;1.07;;;;;;;7.42;68.78;100065.44;5096752;27;43048;-79
2022/10/07 02:08:32;;;;;;;1.50;1.20;;;;;;;7.31;68.38;100043.81;5096721;28;42057;-79
2022/10/07 02:11:23;;;;;;;3.43;1.60;;;;;;;7.44;68.72;100061.84;5113812;28;41187;-79
2022/10/07 02:14:02;;;;;;;3.13;1.50;;;;;;;7.44;68.69;100061.84;5094749;28;40111;-79
2022/10/07 02:16:39;;;;;;;1.70;1.03;;;;;;;7.42;68.89;100045.19;5110623;28;42438;-78
2022/10/07 02:19:15;;;;;;;2.93;1.50;;;;;;;7.28;68.87;100023.72;5113582;28;43136;-79
2022/10/07 02:21:48;;;;;;;1.50;1.13;;;;;;;7.30;69.21;100026.25;5110551;28;43163;-79
2022/10/07 02:24:17;;;;;;;2.53;1.47;;;;;;;7.38;69.15;100040.97;5096795;28;40169;-79
2022/10/07 02:26:50;;;;;;;2.27;1.30;;;;;;;7.39;68.91;100042.69;5110671;28;41571;-79
2022/10/07 02:29:21;;;;;;;3.23;1.90;;;;;;;7.31;68.89;100022.72;5113837;28;43029;-79
2022/10/07 02:31:52;;;;;;;1.40;1.10;;;;;;;7.36;68.85;100026.97;5096301;28;42137;-79
2022/10/07 02:34:23;;;;;;;2.30;1.20;;;;;;;7.36;68.54;100032.22;5113469;28;40926;-79
2022/10/07 02:36:57;;;;;;;2.07;1.17;;;;;;;7.34;68.64;100023.50;5096272;28;40949;-79
2022/10/07 02:39:27;;;;;;;2.07;1.47;;;;;;;7.19;68.77;100000.25;5113706;28;43434;-78
2022/10/07 02:42:02;;;;;;;1.33;1.00;;;;;;;7.35;68.77;100013.81;5113465;28;41037;-80
2022/10/07 02:44:39;;;;;;;1.20;1.10;;;;;;;7.36;68.56;100016.41;5110704;28;39899;-80
2022/10/07 02:47:15;;;;;;;1.97;1.20;;;;;;;7.39;68.71;100021.59;5095770;28;40422;-79
2022/10/07 02:49:48;;;;;;;1.53;0.93;;;;;;;7.40;68.55;100018.06;5096373;28;44589;-79
2022/10/07 02:52:18;;;;;;;4.70;1.30;;;;;;;7.41;68.41;100014.50;5095959;28;42253;-79
2022/10/07 02:54:55;;;;;;;1.50;1.23;;;;;;;7.39;68.57;100005.78;5096369;28;38497;-79
2022/10/07 02:57:25;;;;;;;1.27;1.17;;;;;;;7.41;68.54;100009.25;5112894;28;42318;-79
2022/10/07 02:59:55;;;;;;;1.77;1.37;;;;;;;7.51;68.59;100007.19;5113140;28;43575;-79
2022/10/07 03:02:28;;;;;;;3.73;1.33;;;;;;;7.55;68.33;100006.16;5129747;27;42120;-79
2022/10/07 03:04:57;;;;;;;2.90;1.37;;;;;;;7.48;68.50;99989.69;5095973;28;39924;-80
2022/10/07 03:07:26;;;;;;;2.87;1.27;;;;;;;7.51;68.45;99992.22;5112619;28;41799;-79
2022/10/07 03:09:54;;;;;;;2.07;1.10;;;;;;;7.43;68.47;99959.09;5112882;28;43341;-79
2022/10/07 03:12:22;;;;;;;1.20;1.10;;;;;;;7.77;68.31;100007.22;5094950;28;41128;-79
2022/10/07 03:14:50;;;;;;;3.47;1.30;;;;;;;7.76;68.11;99983.50;5095843;28;39152;-79
2022/10/07 03:17:21;;;;;;;1.50;1.20;;;;;;;7.90;68.18;100002.38;5112364;28;41689;-78
2022/10/07 03:19:49;;;;;;;1.47;1.20;;;;;;;8.00;68.16;100006.44;5112412;28;43462;-79
2022/10/07 03:22:17;;;;;;;1.80;1.23;;;;;;;8.10;67.95;99996.44;5112350;28;42406;-79
2022/10/07 03:24:45;;;;;;;2.00;1.00;;;;;;;8.12;69.08;99981.41;5113039;28;40237;-79
2022/10/07 08:07:54;;;;;;;6.73;3.53;;;;;;;10.75;83.36;99862.25;5169838;27;38947;-85
2022/10/07 08:10:41;;;;;;;4.33;2.90;;;;;;;11.32;78.91;99863.00;5153433;27;42131;-88
2022/10/07 08:13:29;;;;;;;5.50;2.73;;;;;;;11.86;76.87;99885.97;5152811;27;42319;-86
2022/10/07 08:15:57;;;;;;;4.37;2.50;;;;;;;12.23;75.14;99879.59;5153114;27;42915;-86
2022/10/07 08:18:25;;;;;;;4.33;3.30;;;;;;;12.36;73.15;99848.78;5152910;27;39209;-83
2022/10/07 08:21:09;;;;;;;3.00;2.60;;;;;;;12.99;71.86;99886.00;5152630;27;40335;-87
2022/10/07 08:23:47;;;;;;;6.10;3.17;;;;;;;13.41;69.98;99887.22;5170089;27;42661;-84
2022/10/07 08:26:36;;;;;;;6.70;3.03;;;;;;;13.76;68.81;99894.00;5170336;27;43652;-83
2022/10/07 08:29:06;;;;;;;7.00;3.30;;;;;;;14.05;67.06;99870.97;5134675;27;39168;-79
2022/10/07 08:31:34;;;;;;;4.40;2.80;;;;;;;14.54;65.90;99892.84;5145758;27;42575;-87
2022/10/07 08:34:04;;;;;;;4.37;2.90;;;;;;;15.06;64.83;99894.88;5097230;27;42118;-83
2022/10/07 08:36:33;;;;;;;6.87;2.80;;;;;;;15.61;63.10;99880.59;5131654;27;40952;-84
2022/10/07 08:39:23;;;;;;;6.67;2.80;;;;;;;15.76;62.16;99859.06;5131557;27;39748;-82
2022/10/07 08:42:12;;;;;;;3.73;2.80;;;;;;;17.06;57.94;99911.47;5115100;27;41760;-86
2022/10/07 08:45:01;;;;;;;7.57;3.17;;;;;;;17.34;56.13;99868.31;5115575;27;42601;-87
2022/10/07 08:47:35;;;;;;;4.23;2.30;;;;;;;17.85;54.16;99910.94;5114611;27;41268;-84
2022/10/07 08:53:15;;;;;;;5.13;3.00;;;;;;;17.45;53.68;99848.75;5113155;27;41421;-88
2022/10/07 08:55:55;;;;;;;3.60;2.67;;;;;;;17.78;53.77;99904.34;5116903;27;42581;-85
2022/10/07 08:58:56;;;;;;;4.83;2.83;;;;;;;18.82;53.18;99903.34;5116120;27;42312;-85
2022/10/07 09:01:57;;;;;;;4.13;2.30;;;;;;;18.55;52.12;99873.28;5150329;27;39120;-86
2022/10/07 09:04:36;;;;;;;3.17;2.50;;;;;;;18.77;51.68;99904.69;5162115;27;42721;-79
2022/10/07 09:07:09;;;;;;;5.13;2.30;;;;;;;19.33;51.06;99900.09;5130550;27;41482;-79
2022/10/07 09:09:41;;;;;;;5.90;2.47;;;;;;;20.62;49.17;99913.34;5162526;27;42227;-79
2022/10/07 09:12:21;;;;;;;4.07;2.20;;;;;;;21.00;47.29;99888.41;5130326;27;39317;-80
2022/10/07 09:14:54;;;;;;;5.60;2.80;;;;;;;20.90;46.02;99900.97;5124756;27;43443;-80
2022/10/07 09:17:25;;;;;;;5.57;2.83;;;;;;;20.72;47.05;99905.31;5134753;27;42909;-79
2022/10/07 09:19:57;;;;;;;4.93;2.63;;;;;;;20.67;46.37;99886.00;5132539;27;42193;-84
2022/10/07 09:22:31;;;;;;;4.93;2.50;;;;;;;20.39;47.33;99880.38;5100377;27;39407;-81
2022/10/07 09:25:16;;;;;;;4.07;2.70;;;;;;;20.21;46.87;99895.34;5100357;27;40451;-80
2022/10/07 09:27:45;;;;;;;4.13;2.80;;;;;;;20.40;47.45;99875.81;5116454;27;43320;-77
2022/10/07 09:33:16;;;;;;;2.90;2.40;;;;;;;20.50;47.67;99878.56;5099150;27;39226;-83
2022/10/07 09:35:52;;;;;;;3.77;2.17;;;;;;;20.37;47.54;99863.50;5117269;27;41833;-83
2022/10/07 09:38:53;;;;;;;5.73;2.33;;;;;;;20.25;48.09;99853.78;5100710;27;42026;-84
2022/10/07 09:41:41;;;;;;;3.00;2.13;;;;;;;20.26;47.67;99850.09;5100265;27;41516;-85
2022/10/07 09:49:58;;;;;;;5.93;2.53;;;;;;;20.09;46.82;99866.81;5118517;27;41365;-83
2022/10/07 09:55:42;;;;;;;4.13;2.30;;;;;;;20.19;46.70;99846.22;5136998;27;39190;-84
2022/10/07 10:01:23;;;;;;;2.57;2.30;;;;;;;20.26;46.22;99839.34;5152447;27;43294;-81
2022/10/07 10:03:59;;;;;;;4.50;2.40;;;;;;;20.51;46.89;99853.38;5137351;27;42188;-82
2022/10/07 10:06:28;;;;;;;4.57;2.70;;;;;;;20.96;45.87;99854.66;5155570;27;40903;-84
2022/10/07 10:08:56;;;;;;;5.07;2.40;;;;;;;21.65;44.29;99862.72;5120652;27;40771;-81
2022/10/07 10:11:28;;;;;;;4.70;2.73;;;;;;;22.40;42.86;99874.59;5137734;27;42692;-76
2022/10/07 10:13:55;;;;;;;3.87;2.20;;;;;;;22.94;41.36;99857.66;5120532;27;41550;-82
2022/10/07 10:16:34;;;;;;;3.97;2.00;;;;;;;23.27;41.02;99859.72;5137571;27;39769;-87
2022/10/07 10:19:03;;;;;;;3.87;2.10;;;;;;;23.53;41.58;99865.25;5119500;27;40605;-85
2022/10/07 10:21:35;;;;;;;5.57;2.60;;;;;;;23.88;41.13;99858.97;5154202;27;41593;-88
2022/10/07 10:24:05;;;;;;;2.70;2.00;;;;;;;24.08;41.18;99858.81;5134268;27;42212;-83
2022/10/07 10:26:56;;;;;;;3.17;2.43;;;;;;;24.00;40.99;99852.31;5118850;27;39889;-86
2022/10/07 10:29:37;;;;;;;5.20;2.60;;;;;;;23.86;41.14;99847.47;5113095;27;41819;-79
2022/10/07 10:32:24;;;;;;;3.73;2.40;;;;;;;23.93;40.20;99817.94;5100580;27;41834;-76
2022/10/07 10:34:58;;;;;;;4.40;2.90;;;;;;;24.36;40.09;99837.91;5134256;27;42378;-79
2022/10/07 10:37:43;;;;;;;5.13;2.70;;;;;;;24.77;39.92;99831.66;5135630;27;39117;-81
2022/10/07 10:40:19;;;;;;;5.00;2.70;;;;;;;25.45;39.50;99833.44;5136085;27;40687;-80
2022/10/07 10:42:54;;;;;;;4.60;2.20;;;;;;;26.38;37.42;99842.94;5151622;27;43884;-81
2022/10/07 10:45:34;;;;;;;4.57;2.50;;;;;;;27.23;34.15;99827.69;5136040;27;42208;-80
2022/10/07 10:48:17;;;;;;;4.13;2.27;;;;;;;27.35;34.53;99836.28;5151444;27;39916;-79
2022/10/07 10:50:53;;;;;;;5.47;2.63;;;;;;;27.52;34.48;99844.19;5135129;27;42426;-78
2022/10/07 10:53:35;;;;;;;3.60;2.43;;;;;;;27.31;34.00;99845.84;5132949;27;42548;-80
2022/10/07 10:56:17;;;;;;;3.70;2.20;;;;;;;27.63;34.57;99833.94;5136021;27;42439;-80
2022/10/07 10:58:57;;;;;;;3.40;2.20;;;;;;;28.01;35.36;99816.59;5151527;27;39916;-80
2022/10/07 11:01:32;;;;;;;2.77;1.97;;;;;;;28.78;33.39;99830.81;5118433;27;43122;-79
2022/10/07 11:04:24;;;;;;;4.10;2.27;;;;;;;29.26;32.49;99828.47;5151066;27;44126;-79
2022/10/07 11:06:58;;;;;;;6.10;2.57;;;;;;;29.36;31.95;99822.69;5133721;27;43901;-79
2022/10/07 11:09:38;;;;;;;5.73;2.40;;;;;;;29.57;32.08;99823.56;5151832;27;40306;-83
2022/10/07 11:12:25;;;;;;;3.90;2.57;;;;;;;29.88;31.24;99812.31;5151151;27;42723;-83
2022/10/07 11:14:57;;;;;;;3.67;2.13;;;;;;;29.95;32.05;99785.06;5118628;27;43676;-81
2022/10/07 11:17:30;;;;;;;4.47;2.40;;;;;;;29.79;32.39;99802.59;5118293;27;42212;-80
2022/10/07 11:20:11;;;;;;;5.40;2.03;;;;;;;29.45;31.63;99810.63;5119086;27;39268;-79
2022/10/07 11:22:44;;;;;;;4.23;2.30;;;;;;;28.97;32.27;99801.25;5118382;27;40939;-80
2022/10/07 11:25:25;;;;;;;4.97;2.40;;;;;;;28.68;33.48;99763.94;5120808;27;42413;-83
2022/10/07 11:27:55;;;;;;;3.10;2.30;;;;;;;29.28;33.20;99771.81;5122610;27;43514;-79
2022/10/07 11:30:24;;;;;;;6.90;2.27;;;;;;;29.45;32.75;99767.81;5139548;27;40696;-82
2022/10/07 11:32:56;;;;;;;2.97;2.30;;;;;;;30.51;31.54;99774.13;5136844;27;40627;-79
2022/10/07 11:35:30;;;;;;;5.97;2.40;;;;;;;31.41;30.58;99763.75;5120029;27;41711;-82
2022/10/07 11:38:06;;;;;;;3.93;2.20;;;;;;;31.85;30.55;99761.50;5152218;27;42799;-82
2022/10/07 11:40:50;;;;;;;4.13;2.47;;;;;;;32.40;29.12;99761.03;5151223;27;40301;-78
2022/10/07 11:43:25;;;;;;;3.30;2.30;;;;;;;32.90;28.75;99766.78;5117035;27;41108;-82
2022/10/07 11:45:56;;;;;;;3.73;1.70;;;;;;;32.43;28.57;99716.72;5117961;27;42324;-80
2022/10/07 11:48:30;;;;;;;3.53;2.30;;;;;;;33.21;29.09;99730.31;5117711;27;42383;-81
2022/10/07 11:51:02;;;;;;;3.50;2.10;;;;;;;33.37;28.21;99739.97;5132404;27;40674;-78
2022/10/07 11:53:35;;;;;;;4.03;2.47;;;;;;;33.81;27.20;99756.31;5117341;27;42017;-84
2022/10/07 11:56:15;;;;;;;4.63;2.57;;;;;;;34.25;27.33;99746.16;5150758;27;43190;-82
2022/10/07 11:58:43;;;;;;;3.00;1.77;;;;;;;34.55;26.92;99736.13;5134854;27;42093;-84
2022/10/07 12:01:39;;;;;;;4.30;2.33;;;;;;;34.43;27.10;99732.47;5116853;27;39792;-78
2022/10/07 12:04:39;;;;;;;4.63;2.20;;;;;;;34.54;26.06;99736.34;5136747;27;41851;-82
2022/10/07 12:07:50;;;;;;;3.17;1.87;;;;;;;34.12;27.23;99722.41;5126108;27;42405;-83
2022/10/07 12:10:26;;;;;;;3.60;2.23;;;;;;;33.36;28.81;99699.81;5118208;27;41539;-84
2022/10/07 12:13:24;;;;;;;3.57;1.90;;;;;;;32.97;28.93;99673.44;5117671;27;38755;-82
2022/10/07 12:15:56;;;;;;;2.30;1.90;;;;;;;33.63;27.62;99668.28;5115078;27;40628;-81
2022/10/07 12:19:33;;;;;;;3.17;1.97;;;;;;;35.16;26.18;99671.78;5117438;27;41191;-82
2022/10/07 12:22:18;;;;;;;4.43;2.13;;;;;;;36.41;24.80;99684.47;5114136;27;41803;-82
2022/10/07 12:25:45;;;;;;;4.25;1.92;;;;;;;36.96;24.40;99679.28;5134790;27;39927;-87
2022/10/07 12:28:16;;;;;;;3.70;2.10;;;;;;;36.96;24.06;99685.63;5100107;27;42226;-82
2022/10/07 12:30:53;;;;;;;2.90;1.93;;;;;;;36.27;24.35;99687.50;5117850;27;42376;-83
2022/10/07 12:33:29;;;;;;;3.97;1.87;;;;;;;35.15;25.95;99664.59;5116767;27;41117;-82
2022/10/07 12:35:56;;;;;;;3.93;2.10;;;;;;;33.98;26.56;99632.91;5149922;27;39988;-81
2022/10/07 12:38:29;;;;;;;4.40;2.40;;;;;;;33.22;27.64;99648.78;5117081;27;41585;-81
2022/10/07 12:41:29;;;;;;;3.70;2.00;;;;;;;32.20;28.67;99636.88;5117252;27;44014;-81
2022/10/07 12:44:05;;;;;;;5.27;2.07;;;;;;;31.74;29.83;99624.13;5149651;27;42184;-78
2022/10/07 12:46:41;;;;;;;3.07;1.90;;;;;;;31.70;29.67;99611.91;5134321;27;39006;-80
2022/10/07 12:49:25;;;;;;;2.37;1.90;;;;;;;31.66;30.22;99616.13;5117197;27;41471;-78
2022/10/07 12:51:54;;;;;;;2.27;2.00;;;;;;;31.15;30.92;99593.19;5137455;27;41968;-80
2022/10/07 12:54:30;;;;;;;2.20;1.80;;;;;;;30.74;31.83;99598.81;5121072;27;41485;-80
2022/10/07 12:56:59;;;;;;;3.27;2.17;;;;;;;30.31;32.51;99569.84;5137152;27;39738;-80
2022/10/07 12:59:47;;;;;;;5.43;4.33;;;;;;;30.51;33.18;99588.22;5120922;27;41783;-78
2022/10/07 13:02:45;;;;;;;3.77;3.47;;;;;;;30.95;32.47;99572.09;5136893;27;43722;-78
2022/10/07 13:05:46;;;;;;;3.47;2.40;;;;;;;32.05;31.23;99576.81;5137761;27;41084;-80
2022/10/07 13:08:50;;;;;;;3.60;2.10;;;;;;;31.87;30.81;99581.31;5120185;27;39964;-78
2022/10/07 13:12:08;;;;;;;2.90;2.03;;;;;;;31.53;30.34;99572.28;5131030;27;41772;-79
2022/10/07 13:15:18;;;;;;;3.63;1.93;;;;;;;32.06;29.88;99563.94;5075953;28;43007;-84
2022/10/07 13:17:54;;;;;;;3.47;2.10;;;;;;;32.23;29.73;99562.44;5119583;27;41684;-82
2022/10/07 13:20:39;;;;;;;4.13;2.13;;;;;;;32.44;30.14;99567.56;5155018;27;40116;-82
2022/10/07 13:23:14;;;;;;;1.90;1.63;;;;;;;32.74;29.10;99576.09;5136257;27;42989;-82
2022/10/07 13:25:49;;;;;;;2.97;2.10;;;;;;;33.03;29.04;99574.56;5152970;27;43751;-81
2022/10/07 13:28:21;;;;;;;5.27;2.10;;;;;;;33.27;29.59;99559.19;5135339;27;43193;-81
2022/10/07 13:30:49;;;;;;;2.70;2.17;;;;;;;33.43;28.71;99568.75;5137767;27;39956;-83
2022/10/07 13:33:25;;;;;;;7.13;1.97;;;;;;;33.65;29.36;99545.28;5155226;27;42414;-83
2022/10/07 13:36:06;;;;;;;5.73;2.30;;;;;;;33.91;28.24;99554.31;5120096;27;43631;-80
2022/10/07 13:38:35;;;;;;;2.57;2.20;;;;;;;33.90;27.83;99553.47;5119395;27;42113;-79
2022/10/07 13:41:05;;;;;;;2.57;2.03;;;;;;;34.03;28.47;99546.97;5120154;27;38960;-81
2022/10/07 13:43:35;;;;;;;4.73;2.13;;;;;;;34.09;29.10;99529.56;5136521;27;41897;-81
2022/10/07 13:46:07;;;;;;;5.80;2.40;;;;;;;33.97;29.84;99512.19;5120235;27;41643;-80
2022/10/07 13:48:39;;;;;;;3.77;2.37;;;;;;;33.73;28.72;99514.78;5119553;27;42216;-80
2022/10/07 13:51:07;;;;;;;6.63;2.13;;;;;;;33.78;28.36;99523.19;5134477;27;39869;-79
2022/10/07 13:53:37;;;;;;;7.33;3.00;;;;;;;33.80;28.46;99526.53;5136613;27;41902;-80
2022/10/07 13:56:19;;;;;;;5.07;2.40;;;;;;;33.67;29.03;99521.16;5119885;27;41828;-79
2022/10/07 13:58:46;;;;;;;3.40;1.83;;;;;;;33.46;29.32;99518.88;5136532;27;40952;-80
2022/10/07 14:01:15;;;;;;;2.50;2.30;;;;;;;32.70;30.72;99492.50;5119275;27;39482;-79
2022/10/07 14:04:11;;;;;;;2.93;2.10;;;;;;;31.72;30.84;99502.13;5135807;27;42120;-79
2022/10/07 14:06:50;;;;;;;2.37;2.17;;;;;;;31.71;30.85;99504.03;5133624;27;43552;-77
2022/10/07 14:09:25;;;;;;;3.40;2.10;;;;;;;32.07;30.46;99505.34;5154534;27;42837;-78
2022/10/07 14:11:56;;;;;;;2.53;1.80;;;;;;;32.21;30.60;99487.78;5133316;27;40858;-78
2022/10/07 14:14:27;;;;;;;4.40;2.10;;;;;;;32.45;30.20;99484.25;5154912;27;42427;-80
2022/10/07 14:16:57;;;;;;;2.90;2.10;;;;;;;32.73;29.55;99492.09;5136027;27;41385;-79
2022/10/07 14:19:31;;;;;;;3.90;2.10;;;;;;;32.94;29.87;99484.53;5155328;27;43080;-79
2022/10/07 14:22:02;;;;;;;2.77;2.20;;;;;;;32.76;30.66;99474.34;5133493;27;41769;-77
2022/10/07 14:24:31;;;;;;;4.23;1.93;;;;;;;32.00;31.27;99468.91;5137069;27;42525;-82
2022/10/07 14:26:59;;;;;;;5.70;2.00;;;;;;;31.13;32.50;99433.84;5118864;27;41653;-82
2022/10/07 14:29:36;;;;;;;2.10;1.90;;;;;;;30.46;33.30;99438.47;5154871;27;43126;-80
2022/10/07 14:35:21;;;;;;;3.70;2.00;;;;;;;29.07;35.27;99420.75;5136829;27;41717;-81
2022/10/07 14:37:49;;;;;;;2.17;1.97;;;;;;;28.47;35.90;99414.00;5153912;27;42826;-80
2022/10/07 14:40:21;;;;;;;3.07;2.17;;;;;;;27.95;36.69;99408.88;5119186;27;43864;-80
2022/10/07 14:42:52;;;;;;;2.57;1.70;;;;;;;27.53;37.92;99405.03;5135801;27;38910;-81
2022/10/07 14:45:21;;;;;;;5.37;2.10;;;;;;;27.09;38.52;99377.03;5134722;27;42068;-81
2022/10/07 14:47:49;;;;;;;3.50;2.20;;;;;;;26.77;38.97;99362.78;5118511;27;42969;-81
2022/10/07 14:50:19;;;;;;;2.57;2.10;;;;;;;26.61;39.42;99375.69;5136152;27;42153;-79
2022/10/07 14:52:50;;;;;;;2.20;1.73;;;;;;;26.33;39.90;99373.63;5135797;27;39121;-78
2022/10/07 14:55:20;;;;;;;4.70;2.20;;;;;;;26.06;40.17;99363.31;5134163;27;42630;-78
2022/10/07 14:57:48;;;;;;;4.83;2.73;;;;;;;25.77;40.82;99372.16;5118167;27;42896;-76
2022/10/07 15:00:18;;;;;;;4.87;2.30;;;;;;;25.52;41.01;99362.47;5135504;27;43348;-78
2022/10/07 15:02:46;;;;;;;3.93;2.40;;;;;;;25.29;41.88;99348.88;5135623;27;40860;-78
2022/10/07 15:05:14;;;;;;;4.73;2.80;;;;;;;25.07;42.11;99347.81;5117941;27;40674;-77
2022/10/07 15:07:53;;;;;;;3.60;2.30;;;;;;;24.87;42.79;99341.91;5117863;27;44284;-81
2022/10/07 15:10:25;;;;;;;4.80;3.20;;;;;;;24.67;43.14;99341.47;5118689;27;42557;-80
2022/10/07 15:12:52;;;;;;;4.60;2.63;;;;;;;24.49;43.70;99323.75;5117770;27;38563;-77
2022/10/07 15:15:20;;;;;;;2.83;2.20;;;;;;;24.29;44.60;99315.16;5135649;27;40641;-78
2022/10/07 15:17:48;;;;;;;4.83;2.53;;;;;;;24.11;44.46;99322.63;5134983;27;43955;-78
2022/10/07 15:20:16;;;;;;;4.37;2.80;;;;;;;23.84;45.22;99303.03;5118223;27;41119;-79
2022/10/07 15:22:45;;;;;;;4.47;2.60;;;;;;;23.63;45.31;99292.69;5117110;27;40604;-78
2022/10/07 15:25:14;;;;;;;3.23;2.30;;;;;;;23.56;45.58;99298.94;5135352;27;41710;-80
2022/10/07 15:27:42;;;;;;;6.17;3.47;;;;;;;23.42;45.84;99302.28;5135516;27;42727;-79
2022/10/07 15:30:11;;;;;;;3.40;2.60;;;;;;;23.18;46.46;99281.44;5118839;27;41742;-80
2022/10/07 15:32:41;;;;;;;5.03;3.13;;;;;;;23.04;46.72;99280.22;5135137;27;40171;-82
2022/10/07 15:35:09;;;;;;;4.07;2.63;;;;;;;22.77;47.23;99261.56;5136065;27;42241;-81
2022/10/07 15:37:38;;;;;;;3.53;2.60;;;;;;;22.81;47.26;99300.75;5117846;27;42958;-78
2022/10/07 15:40:09;;;;;;;5.43;2.67;;;;;;;22.65;47.91;99284.44;5136043;27;42135;-80
2022/10/07 15:42:37;;;;;;;3.27;2.60;;;;;;;22.38;48.03;99258.50;5152329;27;39696;-83
2022/10/07 15:45:05;;;;;;;3.43;2.80;;;;;;;22.33;48.41;99272.50;5118880;27;42375;-81
2022/10/07 15:47:33;;;;;;;2.43;2.17;;;;;;;22.18;48.86;99261.44;5135012;27;42482;-78
2022/10/07 15:50:01;;;;;;;3.80;2.73;;;;;;;21.90;49.47;99245.53;5118377;27;42636;-79
2022/10/07 15:52:28;;;;;;;3.73;2.67;;;;;;;21.78;49.86;99237.72;5117630;27;41165;-80
2022/10/07 15:54:56;;;;;;;2.43;2.23;;;;;;;21.78;49.96;99259.28;5135887;27;41791;-80
2022/10/07 15:57:26;;;;;;;3.63;2.87;;;;;;;21.60;50.16;99254.94;5134718;27;41776;-81
2022/10/07 15:59:54;;;;;;;4.93;2.77;;;;;;;21.42;50.51;99241.47;5118706;27;42292;-82
2022/10/07 16:02:22;;;;;;;3.43;2.80;;;;;;;21.34;50.71;99244.09;5117318;27;38787;-81
2022/10/07 16:04:51;;;;;;;3.90;3.47;;;;;;;21.32;51.02;99259.56;5118711;27;40911;-81
2022/10/07 16:07:18;;;;;;;5.70;2.90;;;;;;;21.17;51.47;99248.44;5117315;27;41795;-81
2022/10/07 16:09:46;;;;;;;4.17;2.70;;;;;;;21.12;52.02;99254.31;5135555;27;42985;-80
2022/10/07 16:12:14;;;;;;;3.20;2.90;;;;;;;21.04;52.21;99254.19;5117261;27;38921;-78
2022/10/07 16:14:43;;;;;;;3.23;2.53;;;;;;;20.93;52.66;99257.13;5118338;27;41695;-78
2022/10/07 16:17:11;;;;;;;4.00;3.00;;;;;;;20.49;53.13;99198.75;5134489;27;42704;-79
2022/10/07 16:19:38;;;;;;;4.23;3.17;;;;;;;20.74;53.35;99247.34;5135231;27;43138;-79
2022/10/07 16:22:06;;;;;;;4.67;2.90;;;;;;;20.66;53.19;99268.75;5116560;27;41617;-76
2022/10/07 16:24:34;;;;;;;3.00;2.80;;;;;;;20.62;53.38;99269.22;5154024;27;41808;-78
2022/10/07 16:27:01;;;;;;;3.23;2.90;;;;;;;20.54;53.70;99264.56;5156330;27;43762;-78
2022/10/07 16:32:15;;;;;;;3.23;2.93;;;;;;;20.36;54.06;99264.50;5154538;27;40220;-78
2022/10/07 16:34:44;;;;;;;3.53;3.10;;;;;;;20.29;54.71;99257.13;5157243;27;43003;-78
2022/10/07 16:37:14;;;;;;;3.93;3.50;;;;;;;20.17;54.61;99247.56;5120378;27;41756;-79
2022/10/07 16:39:41;;;;;;;4.90;3.63;;;;;;;20.04;54.47;99247.88;5136471;27;43824;-81
2022/10/07 16:42:09;;;;;;;3.30;2.97;;;;;;;20.02;54.48;99252.56;5149576;27;39860;-78
2022/10/07 16:44:37;;;;;;;3.67;3.13;;;;;;;19.98;55.20;99259.22;5172528;27;43244;-80
2022/10/07 16:47:05;;;;;;;4.00;3.47;;;;;;;19.92;55.43;99259.78;5120504;27;44403;-80
2022/10/07 16:49:35;;;;;;;4.43;3.33;;;;;;;19.86;55.62;99257.69;5138209;27;42128;-80
2022/10/07 16:52:03;;;;;;;3.83;3.30;;;;;;;19.81;55.42;99262.66;5137609;27;41412;-80
2022/10/07 16:54:34;;;;;;;3.67;3.20;;;;;;;19.64;56.17;99240.91;5138222;27;42410;-79
2022/10/07 16:57:01;;;;;;;4.73;3.47;;;;;;;19.68;56.08;99253.06;5121072;27;41624;-80
2022/10/07 16:59:29;;;;;;;3.17;2.87;;;;;;;19.67;56.09;99267.47;5157001;27;42213;-80
2022/10/07 17:02:01;;;;;;;3.63;2.90;;;;;;;19.63;55.44;99263.41;5137942;27;38524;-80
2022/10/07 17:04:28;;;;;;;3.90;3.17;;;;;;;19.60;55.88;99265.53;5120948;27;40698;-79
2022/10/07 17:06:58;;;;;;;3.93;3.00;;;;;;;19.53;56.08;99256.34;5137992;27;42028;-80
2022/10/07 17:09:26;;;;;;;4.67;3.33;;;;;;;19.46;56.59;99257.84;5104018;27;40872;-79
2022/10/07 17:11:54;;;;;;;5.13;4.03;;;;;;;19.34;56.83;99259.84;5155085;27;38903;-79
2022/10/07 17:14:23;;;;;;;5.63;3.80;;;;;;;19.15;57.70;99238.38;5121004;27;42174;-80